Terminal Aerodrome Forecast
Issued by NWS

Home | Current Version | Previous Version | Text Only | Print | Product List | Glossary On
Versions: 1 2 3 4 5 6 7 8 9 10 11 12 13 14 15 16 17 18 19 20 21 22 23 24 25 26 27 28 29 30 31 32 33 34 35 36 37 38
000
FTUS45 KBOU 211720
TAFAPA
TAF
KAPA 211720Z 2118/2218 VRB05KT P6SM FEW080 SCT120 BKN200
     FM212100 01006KT P6SM SCT070 BKN120
     FM220200 28006KT P6SM VCSH SCT050 BKN070
     FM220700 24008KT P6SM SCT070 BKN150
     FM221500 21008KT P6SM SCT150=

USA.gov is the U.S. government's official web portal to all federal, state and local government web resources and services.